createdAt,value
2017-08-10T00:00:54.330Z,5.77
2017-08-10T00:03:20.806Z,6.30
2017-08-10T00:05:47.237Z,6.80
2017-08-10T00:08:13.725Z,6.33
2017-08-10T00:10:40.172Z,7.30
2017-08-10T00:13:06.705Z,6.73
2017-08-10T00:15:33.314Z,7.03
2017-08-10T00:17:59.801Z,6.00
2017-08-10T00:20:26.305Z,6.57
2017-08-10T00:22:52.861Z,6.33
2017-08-10T00:25:19.336Z,6.20
2017-08-10T00:27:45.826Z,6.70
2017-08-10T00:30:12.301Z,6.70
2017-08-10T00:32:38.753Z,7.03
2017-08-10T00:35:05.959Z,6.67
2017-08-10T00:37:32.385Z,6.67
2017-08-10T00:39:58.892Z,7.20
2017-08-10T00:42:25.347Z,6.50
2017-08-10T00:44:51.814Z,7.53
2017-08-10T00:47:18.397Z,6.60
2017-08-10T00:49:44.898Z,6.20
2017-08-10T00:52:12.133Z,7.07
2017-08-10T00:54:38.581Z,6.40
2017-08-10T00:57:05.820Z,6.70
2017-08-10T00:59:32.289Z,6.90
2017-08-10T01:01:58.734Z,6.57
2017-08-10T01:04:25.196Z,7.00
2017-08-10T01:06:51.645Z,7.10
2017-08-10T01:09:18.849Z,6.73
2017-08-10T01:11:45.314Z,7.47
2017-08-10T01:14:11.777Z,7.53
2017-08-10T01:16:38.274Z,6.30
2017-08-10T01:19:04.729Z,7.03
2017-08-10T01:21:31.938Z,7.27
2017-08-10T01:23:58.406Z,7.20
2017-08-10T01:26:24.891Z,7.53
2017-08-10T01:28:51.357Z,7.20
2017-08-10T01:31:17.886Z,8.00
2017-08-10T01:33:44.339Z,8.00
2017-08-10T01:36:11.563Z,10.60
2017-08-10T01:38:38.041Z,10.00
2017-08-10T01:41:04.499Z,9.03
2017-08-10T01:43:31.016Z,9.23
2017-08-10T01:45:57.443Z,10.70
2017-08-10T01:48:23.921Z,9.30
2017-08-10T01:50:50.409Z,9.33
2017-08-10T01:53:17.601Z,9.33
2017-08-10T01:55:44.092Z,9.93
2017-08-10T01:58:10.563Z,10.60
2017-08-10T02:00:37.113Z,10.30
2017-08-10T02:03:03.774Z,11.90
2017-08-10T02:05:30.249Z,11.67
2017-08-10T02:07:56.702Z,12.00
2017-08-10T02:10:23.181Z,12.30
2017-08-10T02:12:49.618Z,12.37
2017-08-10T02:15:16.101Z,12.80
2017-08-10T02:17:42.561Z,13.07
2017-08-10T02:20:09.054Z,11.90
2017-08-10T02:22:35.502Z,12.73
2017-08-10T02:25:02.009Z,13.03
2017-08-10T02:27:28.441Z,12.20
2017-08-10T02:29:54.924Z,13.30
2017-08-10T02:32:21.358Z,13.70
2017-08-10T02:34:47.886Z,13.53
2017-08-10T02:37:14.331Z,13.40
2017-08-10T02:39:41.525Z,13.97
2017-08-10T02:42:07.987Z,16.30
2017-08-10T02:44:34.517Z,15.47
2017-08-10T02:47:01.001Z,15.87
2017-08-10T02:49:27.450Z,15.93
2017-08-10T02:51:53.959Z,17.10
2017-08-10T02:54:20.425Z,16.00
2017-08-10T02:56:46.903Z,17.70
2017-08-10T02:59:13.365Z,16.70
2017-08-10T03:01:39.886Z,17.50
2017-08-10T03:04:07.137Z,16.93
2017-08-10T03:06:34.368Z,18.13
2017-08-10T03:09:00.917Z,17.90
2017-08-10T03:11:27.405Z,17.63
2017-08-10T03:13:53.924Z,16.97
2017-08-10T03:16:20.378Z,17.47
2017-08-10T03:18:46.833Z,17.50
2017-08-10T03:21:14.018Z,17.43
2017-08-10T03:23:40.498Z,17.30
2017-08-10T03:26:06.942Z,16.10
2017-08-10T03:28:33.419Z,15.70
2017-08-10T03:30:59.915Z,15.87
2017-08-10T03:33:26.376Z,14.93
2017-08-10T03:35:52.831Z,13.87
2017-08-10T03:38:19.295Z,13.40
2017-08-10T03:40:45.761Z,13.47
2017-08-10T03:43:12.366Z,13.20
2017-08-10T03:45:38.903Z,11.90
2017-08-10T03:48:05.386Z,12.40
2017-08-10T03:50:31.850Z,11.80
2017-08-10T03:52:58.330Z,11.80
2017-08-10T03:55:25.510Z,11.50
2017-08-10T03:57:51.940Z,12.33
2017-08-10T04:00:18.373Z,11.37
2017-08-10T04:02:44.811Z,12.50
2017-08-10T04:05:11.282Z,12.07
2017-08-10T04:07:37.713Z,12.20
2017-08-10T04:10:04.189Z,11.90
2017-08-10T04:12:30.633Z,11.80
2017-08-10T04:14:57.096Z,11.33
2017-08-10T04:17:23.546Z,11.70
2017-08-10T04:19:50.021Z,11.00
2017-08-10T04:22:16.507Z,11.23
2017-08-10T04:24:43.051Z,10.93
2017-08-10T04:27:09.501Z,11.43
2017-08-10T04:29:35.993Z,11.30
2017-08-10T04:32:03.214Z,11.30
2017-08-10T04:34:29.804Z,11.93
2017-08-10T04:36:56.317Z,10.43
2017-08-10T04:39:22.747Z,11.30
2017-08-10T04:41:49.213Z,11.33
2017-08-10T04:44:15.677Z,11.63
2017-08-10T04:46:42.161Z,12.20
2017-08-10T04:49:08.656Z,12.67
2017-08-10T04:51:35.123Z,11.07
2017-08-10T04:54:02.334Z,11.30
2017-08-10T04:56:28.812Z,12.33
2017-08-10T04:58:56.009Z,11.63
2017-08-10T05:01:22.473Z,12.27
2017-08-10T05:03:48.922Z,12.30
2017-08-10T05:06:15.353Z,12.07
2017-08-10T05:08:41.786Z,12.03
2017-08-10T05:11:08.221Z,12.03
2017-08-10T05:13:34.674Z,11.87
2017-08-10T05:16:01.861Z,12.00
2017-08-10T05:18:28.418Z,12.37
2017-08-10T05:20:54.884Z,13.27
2017-08-10T05:23:21.404Z,12.10
2017-08-10T05:25:47.885Z,11.43
2017-08-10T05:28:14.351Z,11.47
2017-08-10T05:30:40.829Z,12.93
2017-08-10T05:33:07.310Z,12.43
2017-08-10T05:35:33.749Z,12.70
2017-08-10T05:38:00.214Z,12.60
2017-08-10T05:40:27.393Z,13.83
2017-08-10T05:42:53.852Z,13.33
2017-08-10T05:45:20.393Z,14.50
2017-08-10T05:47:46.882Z,14.07
2017-08-10T05:50:14.164Z,14.60
2017-08-10T05:52:40.611Z,14.60
2017-08-10T05:55:07.197Z,14.80
2017-08-10T05:57:33.618Z,13.40
2017-08-10T06:00:00.109Z,13.17
2017-08-10T06:02:26.632Z,13.53
2017-08-10T06:04:53.105Z,13.23
2017-08-10T06:07:19.646Z,12.60
2017-08-10T06:09:46.110Z,14.47
2017-08-10T06:12:12.609Z,14.93
2017-08-10T06:14:39.062Z,14.00
2017-08-10T06:17:05.541Z,14.53
2017-08-10T06:19:32.000Z,14.90
2017-08-10T06:21:59.224Z,14.40
2017-08-10T06:24:25.703Z,14.17
2017-08-10T06:26:52.188Z,16.20
2017-08-10T06:29:18.637Z,15.53
2017-08-10T06:31:45.069Z,15.57
2017-08-10T06:34:11.583Z,14.23
2017-08-10T06:36:38.805Z,14.10
2017-08-10T06:39:05.329Z,15.00
2017-08-10T06:41:31.837Z,15.13
2017-08-10T06:43:58.314Z,14.83
2017-08-10T06:46:24.754Z,16.30
2017-08-10T06:48:51.209Z,16.00
2017-08-10T06:51:17.659Z,14.60
2017-08-10T06:53:44.123Z,15.50
2017-08-10T06:56:10.698Z,15.97
2017-08-10T06:58:37.149Z,15.87
2017-08-10T07:01:03.605Z,15.77
2017-08-10T07:03:30.838Z,17.70
2017-08-10T07:05:57.325Z,15.90
2017-08-10T07:08:23.766Z,17.73
2017-08-10T07:10:50.233Z,15.70
2017-08-10T07:13:16.709Z,15.90
2017-08-10T07:15:43.181Z,16.67
2017-08-10T07:18:09.635Z,15.70
2017-08-10T07:20:36.182Z,16.20
2017-08-10T07:23:03.357Z,16.90
2017-08-10T07:25:29.839Z,16.53
2017-08-10T07:27:56.388Z,17.60
2017-08-10T07:30:22.854Z,16.90
2017-08-10T07:32:49.320Z,16.40
2017-08-10T07:35:16.694Z,17.10
2017-08-10T07:37:43.909Z,16.73
2017-08-10T07:40:10.385Z,17.07
2017-08-10T07:42:37.738Z,16.87
2017-08-10T07:45:04.230Z,18.20
2017-08-10T07:47:30.693Z,17.13
2017-08-10T07:49:57.211Z,18.10
2017-08-10T07:52:23.782Z,17.80
2017-08-10T07:54:50.265Z,16.90
2017-08-10T07:57:16.838Z,17.50
2017-08-10T07:59:44.029Z,17.80
2017-08-10T08:02:10.526Z,17.17
2017-08-10T08:04:37.044Z,18.10
2017-08-10T08:07:04.254Z,18.00
2017-08-10T08:09:30.939Z,18.47
2017-08-10T08:11:57.405Z,18.87
2017-08-10T08:14:23.888Z,18.70
2017-08-10T08:16:50.450Z,19.70
2017-08-10T08:19:17.662Z,19.00
2017-08-10T08:21:44.167Z,19.20
2017-08-10T08:24:10.652Z,19.93
2017-08-10T08:26:37.099Z,19.87
2017-08-10T08:29:03.653Z,17.97
2017-08-10T08:31:30.156Z,18.77
2017-08-10T08:33:56.772Z,19.20
2017-08-10T08:36:23.285Z,19.10
2017-08-10T08:38:49.794Z,19.30
2017-08-10T08:41:16.415Z,19.70
2017-08-10T08:43:42.920Z,20.13
2017-08-10T08:46:09.373Z,19.93
2017-08-10T08:48:35.882Z,19.33
2017-08-10T08:51:03.140Z,23.80
2017-08-10T08:53:30.515Z,19.80
2017-08-10T08:55:56.997Z,21.07
2017-08-10T08:58:23.558Z,21.50
2017-08-10T09:00:50.201Z,20.90
2017-08-10T09:03:16.610Z,20.60
2017-08-10T09:05:43.101Z,20.90
2017-08-10T09:08:09.569Z,20.10
2017-08-10T09:10:36.081Z,19.73
2017-08-10T09:13:02.622Z,20.93
2017-08-10T09:15:29.137Z,20.13
2017-08-10T09:17:55.649Z,17.67
2017-08-10T09:20:22.142Z,19.03
2017-08-10T09:22:49.447Z,19.60
2017-08-10T09:25:15.928Z,19.20
2017-08-10T09:27:42.357Z,17.67
2017-08-10T09:30:08.778Z,17.97
2017-08-10T09:32:35.247Z,17.63
2017-08-10T09:35:02.457Z,19.67
2017-08-10T09:37:28.929Z,18.50
2017-08-10T09:39:56.105Z,19.37
2017-08-10T09:42:22.614Z,18.60
2017-08-10T09:44:49.085Z,17.97
2017-08-10T09:47:15.570Z,19.20
2017-08-10T09:49:42.099Z,17.83
2017-08-10T09:52:08.542Z,17.67
2017-08-10T09:54:34.989Z,18.13
2017-08-10T09:57:01.454Z,19.43
2017-08-10T09:59:27.922Z,18.00
2017-08-10T10:01:55.133Z,17.00
2017-08-10T10:04:21.581Z,17.87
2017-08-10T10:06:48.048Z,17.70
2017-08-10T10:09:15.242Z,18.43
2017-08-10T10:11:41.699Z,18.70
2017-08-10T10:14:08.206Z,18.03
2017-08-10T10:16:34.633Z,18.90
2017-08-10T10:19:01.068Z,18.30
2017-08-10T10:21:27.529Z,17.77
2017-08-10T10:23:54.002Z,16.33
2017-08-10T10:26:20.465Z,18.20
2017-08-10T10:28:46.921Z,18.00
2017-08-10T10:31:13.369Z,16.37
2017-08-10T10:33:39.840Z,17.73
2017-08-10T10:36:06.297Z,18.60
2017-08-10T10:38:32.769Z,18.00
2017-08-10T10:40:59.990Z,18.40
2017-08-10T10:43:26.424Z,17.83
2017-08-10T10:45:52.898Z,18.10
2017-08-10T10:48:19.369Z,17.63
2017-08-10T10:50:46.561Z,18.60
2017-08-10T10:53:13.055Z,17.70
2017-08-10T10:55:39.670Z,17.30
2017-08-10T10:58:06.241Z,17.50
2017-08-10T11:00:32.697Z,14.37
2017-08-10T11:02:59.198Z,16.17
2017-08-10T11:05:25.662Z,15.77
2017-08-10T11:07:52.153Z,17.30
2017-08-10T11:10:18.623Z,17.20
2017-08-10T11:12:45.081Z,17.37
2017-08-10T11:15:11.533Z,16.50
2017-08-10T11:17:38.020Z,13.70
2017-08-10T11:20:04.503Z,13.43
2017-08-10T11:22:30.949Z,15.40
2017-08-10T11:24:57.433Z,14.10
2017-08-10T11:27:24.663Z,15.20
2017-08-10T11:29:51.150Z,13.63
2017-08-10T11:32:17.640Z,15.03
2017-08-10T11:34:44.142Z,13.90
2017-08-10T11:37:10.577Z,13.80
2017-08-10T11:39:37.038Z,13.97
2017-08-10T11:42:03.526Z,13.73
2017-08-10T11:44:30.059Z,12.90
2017-08-10T11:46:56.494Z,13.13
2017-08-10T11:49:22.945Z,14.53
2017-08-10T11:51:49.401Z,14.77
2017-08-10T11:54:15.898Z,16.10
2017-08-10T11:56:42.365Z,17.23
2017-08-10T11:59:08.842Z,17.40
2017-08-10T12:01:35.321Z,18.30
2017-08-10T12:04:01.806Z,19.77
2017-08-10T12:06:29.040Z,17.67
2017-08-10T12:08:55.495Z,21.67
2017-08-10T12:11:21.945Z,22.77
2017-08-10T12:13:48.382Z,24.67
2017-08-10T12:16:14.841Z,27.87
2017-08-10T12:18:41.320Z,25.50
2017-08-10T12:21:07.778Z,27.93
2017-08-10T12:23:34.234Z,26.73
2017-08-10T12:26:00.688Z,30.57
2017-08-10T12:28:27.912Z,29.00
2017-08-10T12:30:54.353Z,29.03
2017-08-10T12:33:20.842Z,30.53
2017-08-10T12:35:47.293Z,31.77
2017-08-10T12:38:13.746Z,30.87
2017-08-10T12:40:40.979Z,30.47
2017-08-10T12:43:07.459Z,30.77
2017-08-10T12:45:33.933Z,31.07
2017-08-10T12:48:00.406Z,31.70
2017-08-10T12:50:26.909Z,33.37
2017-08-10T12:52:53.147Z,32.17
2017-08-10T12:55:19.403Z,29.90
2017-08-10T12:57:45.653Z,27.27
2017-08-10T13:00:11.925Z,27.07
2017-08-10T13:02:38.172Z,27.43
2017-08-10T13:05:04.431Z,28.53
2017-08-10T13:07:31.413Z,31.00
2017-08-10T13:09:57.657Z,29.37
2017-08-10T13:12:23.885Z,29.90
2017-08-10T13:14:50.140Z,28.40
2017-08-10T13:17:16.430Z,26.17
2017-08-10T13:19:42.707Z,30.17
2017-08-10T13:22:09.683Z,29.10
2017-08-10T13:24:35.942Z,27.67
2017-08-10T13:27:02.184Z,28.80
2017-08-10T13:29:28.457Z,34.47
2017-08-10T13:31:54.741Z,34.67
2017-08-10T13:34:21.007Z,36.10
2017-08-10T13:36:47.256Z,34.07
2017-08-10T13:39:13.583Z,33.17
2017-08-10T13:41:39.836Z,30.83
2017-08-10T13:44:06.090Z,32.87
2017-08-10T13:46:32.347Z,32.43
2017-08-10T13:48:58.580Z,32.50
2017-08-10T13:51:24.855Z,31.33
2017-08-10T13:53:51.124Z,32.37
2017-08-10T13:56:17.389Z,35.57
2017-08-10T13:58:43.641Z,32.50
2017-08-10T14:01:09.920Z,33.30
2017-08-10T14:03:36.161Z,33.40
2017-08-10T14:06:02.434Z,29.30
2017-08-10T14:08:28.681Z,31.20
2017-08-10T14:10:55.674Z,31.40
2017-08-10T14:13:21.942Z,30.60
2017-08-10T14:15:48.933Z,28.90
2017-08-10T14:18:15.314Z,28.00
2017-08-10T14:20:41.605Z,30.50
2017-08-10T14:23:07.944Z,29.77
2017-08-10T14:25:34.192Z,32.10
2017-08-10T14:28:00.579Z,30.07
2017-08-10T14:30:27.015Z,31.70
2017-08-10T14:32:53.356Z,29.40
2017-08-10T14:35:19.627Z,27.67
2017-08-10T14:37:45.931Z,27.33
2017-08-10T14:40:12.181Z,27.47
2017-08-10T14:42:38.421Z,27.73
2017-08-10T14:45:04.724Z,27.20
2017-08-10T14:47:30.991Z,27.70
2017-08-10T14:49:57.249Z,27.00
2017-08-10T14:52:23.569Z,24.20
2017-08-10T14:54:49.829Z,26.30
2017-08-10T14:57:16.077Z,25.00
2017-08-10T14:59:42.320Z,23.77
2017-08-10T15:02:09.427Z,25.70
2017-08-10T15:04:46.484Z,26.53
2017-08-10T15:07:12.938Z,27.77
2017-08-10T15:09:39.243Z,26.50
2017-08-10T15:12:05.605Z,30.57
2017-08-10T15:14:31.961Z,31.40
2017-08-10T15:16:58.953Z,27.47
2017-08-10T15:19:25.185Z,27.60
2017-08-10T15:21:51.442Z,24.63
2017-08-10T15:24:17.674Z,25.60
2017-08-10T15:26:43.965Z,28.17
2017-08-10T15:29:10.196Z,27.30
2017-08-10T15:31:36.440Z,24.93
2017-08-10T15:34:02.685Z,23.50
2017-08-10T15:36:29.772Z,24.10
2017-08-10T15:38:55.999Z,22.70
2017-08-10T15:41:22.285Z,21.10
2017-08-10T15:43:48.545Z,21.10
2017-08-10T15:46:14.790Z,20.30
2017-08-10T15:48:41.049Z,22.00
2017-08-10T15:51:07.405Z,21.73
2017-08-10T15:53:34.390Z,22.53
2017-08-10T15:56:00.624Z,25.30
2017-08-10T15:58:26.975Z,25.10
2017-08-10T16:00:53.199Z,27.17
2017-08-10T16:03:19.450Z,27.30
2017-08-10T16:05:45.706Z,27.03
2017-08-10T16:08:11.954Z,27.80
2017-08-10T16:10:38.273Z,28.20
2017-08-10T16:13:04.504Z,33.20
2017-08-10T16:15:30.742Z,29.90
2017-08-10T16:17:57.013Z,32.73
2017-08-10T16:20:23.323Z,30.30
2017-08-10T16:22:49.627Z,32.00
2017-08-10T16:25:16.046Z,32.63
2017-08-10T16:27:42.305Z,35.33
2017-08-10T16:30:08.569Z,36.17
2017-08-10T16:32:35.594Z,36.10
2017-08-10T16:35:01.873Z,36.20
2017-08-10T16:37:28.149Z,39.30
2017-08-10T16:39:54.392Z,38.97
2017-08-10T16:42:20.682Z,43.93
2017-08-10T16:44:46.963Z,48.00
2017-08-10T16:47:14.068Z,46.70
2017-08-10T16:49:40.325Z,40.20
2017-08-10T16:52:06.645Z,44.50
2017-08-10T16:54:32.905Z,48.20
2017-08-10T16:56:59.197Z,52.30
2017-08-10T16:59:25.545Z,46.70
2017-08-10T17:01:51.868Z,51.83
2017-08-10T17:04:18.206Z,50.90
2017-08-10T17:06:45.183Z,51.13
2017-08-10T17:09:11.529Z,48.40
2017-08-10T17:11:37.805Z,54.97
2017-08-10T17:14:04.821Z,55.13
2017-08-10T17:16:31.089Z,53.33
2017-08-10T17:18:57.325Z,51.97
2017-08-10T17:21:23.589Z,52.87
2017-08-10T17:23:49.886Z,58.57
2017-08-10T17:26:16.151Z,56.67
2017-08-10T17:28:42.427Z,61.00
2017-08-10T17:31:09.430Z,51.80
2017-08-10T17:33:35.697Z,58.47
2017-08-10T17:36:01.962Z,59.67
2017-08-10T17:38:28.218Z,59.97
2017-08-10T17:40:54.478Z,60.97
2017-08-10T17:43:20.742Z,70.27
2017-08-10T17:45:47.025Z,67.70
2017-08-10T17:48:13.358Z,65.20
2017-08-10T17:50:40.349Z,63.97
2017-08-10T17:53:06.605Z,62.90
2017-08-10T17:55:32.905Z,62.67
2017-08-10T17:57:59.145Z,57.67
2017-08-10T18:00:25.638Z,60.00
2017-08-10T18:02:52.113Z,68.57
2017-08-10T18:05:19.332Z,67.97
2017-08-10T18:07:45.595Z,72.30
2017-08-10T18:10:12.090Z,59.07
2017-08-10T18:12:38.566Z,60.70
2017-08-10T18:15:05.074Z,61.10
2017-08-10T18:17:31.517Z,61.30
2017-08-10T18:19:58.020Z,69.10
2017-08-10T18:22:24.513Z,76.67
2017-08-10T18:24:50.993Z,70.80
2017-08-10T18:27:17.450Z,67.07
2017-08-10T18:29:43.909Z,72.87
2017-08-10T18:32:11.109Z,71.90
2017-08-10T18:34:37.580Z,68.83
2017-08-10T18:37:04.045Z,69.33
2017-08-10T18:39:30.595Z,70.87
2017-08-10T18:41:57.046Z,68.20
2017-08-10T18:44:23.555Z,65.47
2017-08-10T18:46:50.038Z,60.67
2017-08-10T18:49:16.481Z,61.10
2017-08-10T18:51:42.953Z,67.33
2017-08-10T18:54:09.458Z,62.70
2017-08-10T18:56:35.989Z,61.47
2017-08-10T18:59:02.478Z,64.20
2017-08-10T19:01:29.054Z,66.27
2017-08-10T19:03:55.450Z,67.13
2017-08-10T19:06:21.982Z,69.60
2017-08-10T19:11:21.659Z,75.90
2017-08-10T19:13:47.915Z,76.77
2017-08-10T19:16:14.185Z,74.57
2017-08-10T19:18:40.653Z,69.77
2017-08-10T19:21:07.086Z,70.47
2017-08-10T19:23:33.510Z,71.70
2017-08-10T19:25:59.979Z,66.10
2017-08-10T19:28:26.467Z,72.20
2017-08-10T19:30:52.914Z,68.43
2017-08-10T19:33:20.127Z,72.10
2017-08-10T19:35:46.586Z,71.47
2017-08-10T19:38:13.062Z,65.50
2017-08-10T19:40:39.557Z,70.97
2017-08-10T19:43:06.033Z,62.00
2017-08-10T19:45:32.487Z,64.37
2017-08-10T19:47:58.957Z,62.50
2017-08-10T19:50:25.424Z,66.50
2017-08-10T19:52:51.901Z,60.83
2017-08-10T19:55:18.646Z,53.53
2017-08-10T19:57:45.160Z,51.80
2017-08-10T20:00:11.962Z,56.33
2017-08-10T20:02:38.433Z,53.20
2017-08-10T20:05:06.992Z,55.67
2017-08-10T20:07:33.477Z,55.83
2017-08-10T20:09:59.977Z,58.07
2017-08-10T20:12:26.513Z,60.07
2017-08-10T20:14:52.970Z,57.50
2017-08-10T20:17:19.441Z,56.07
2017-08-10T20:19:45.893Z,57.07
2017-08-10T20:22:12.454Z,54.20
2017-08-10T20:24:39.664Z,51.83
2017-08-10T20:27:06.114Z,53.40
2017-08-10T20:29:32.565Z,51.20
2017-08-10T20:32:04.626Z,54.57
2017-08-10T20:34:30.885Z,58.17
2017-08-10T20:36:58.436Z,55.13
2017-08-10T20:42:00.803Z,54.97
2017-08-10T20:44:27.213Z,56.67
2017-08-10T20:46:54.050Z,55.90
2017-08-10T20:49:20.486Z,53.47
2017-08-10T20:51:46.742Z,51.00
2017-08-10T20:54:12.975Z,53.57
2017-08-10T20:56:39.235Z,61.87
2017-08-10T20:59:05.507Z,59.07
2017-08-10T21:01:31.769Z,59.27
2017-08-10T21:03:58.775Z,58.97
2017-08-10T21:06:25.146Z,56.87
2017-08-10T21:08:51.406Z,58.40
2017-08-10T21:11:17.681Z,59.90
2017-08-10T21:13:43.985Z,58.53
2017-08-10T21:16:10.316Z,60.23
2017-08-10T21:18:36.604Z,62.57
2017-08-10T21:21:02.870Z,60.40
2017-08-10T21:23:29.237Z,59.33
2017-08-10T21:25:55.517Z,60.10
2017-08-10T21:28:21.762Z,59.50
2017-08-10T21:30:48.057Z,69.07
2017-08-10T21:33:14.330Z,73.73
2017-08-10T21:35:40.723Z,67.83
2017-08-10T21:38:06.977Z,74.10
2017-08-10T21:40:33.274Z,67.90
2017-08-10T21:42:59.535Z,70.70
2017-08-10T21:45:26.044Z,70.47
2017-08-10T21:47:52.402Z,74.37
2017-08-10T21:50:18.677Z,71.20
2017-08-10T21:52:44.989Z,78.00
2017-08-10T21:55:11.233Z,78.50
2017-08-10T21:57:37.502Z,72.00
2017-08-10T22:00:03.862Z,66.70
2017-08-10T22:02:30.129Z,66.53
2017-08-10T22:04:56.404Z,73.57
2017-08-10T22:07:22.645Z,68.20
2017-08-10T22:09:48.889Z,73.00
2017-08-10T22:12:15.869Z,69.97
2017-08-10T22:14:42.110Z,66.20
2017-08-10T22:17:08.361Z,67.23
2017-08-10T22:19:34.637Z,69.87
2017-08-10T22:22:01.086Z,76.63
2017-08-10T22:24:27.578Z,72.93
2017-08-10T22:26:54.686Z,77.83
2017-08-10T22:29:20.941Z,77.73
2017-08-10T22:31:47.390Z,70.17
2017-08-10T22:34:13.833Z,66.83
2017-08-10T22:36:40.412Z,65.07
2017-08-10T22:39:06.848Z,66.70
2017-08-10T22:41:33.330Z,62.07
2017-08-10T22:43:59.776Z,58.20
2017-08-10T22:46:26.240Z,61.07
2017-08-10T22:48:52.682Z,60.50
2017-08-10T22:51:19.912Z,62.90
2017-08-10T22:53:46.429Z,59.93
2017-08-10T22:56:12.910Z,59.57
2017-08-10T22:58:40.133Z,57.50
2017-08-10T23:01:06.621Z,56.77
2017-08-10T23:03:33.797Z,58.30
2017-08-10T23:06:00.259Z,57.33
2017-08-10T23:08:26.745Z,60.17
2017-08-10T23:10:53.192Z,58.77
2017-08-10T23:13:19.628Z,62.90
2017-08-10T23:15:46.126Z,63.87
2017-08-10T23:18:12.590Z,59.57
2017-08-10T23:20:39.091Z,62.10
2017-08-10T23:23:05.535Z,58.30
2017-08-10T23:25:32.039Z,61.20
2017-08-10T23:27:58.489Z,59.97
2017-08-10T23:30:24.955Z,62.13
2017-08-10T23:32:51.441Z,61.80
2017-08-10T23:35:17.898Z,58.43
2017-08-10T23:37:44.381Z,59.40
2017-08-10T23:40:10.873Z,60.70
2017-08-10T23:42:37.361Z,57.73
2017-08-10T23:45:03.810Z,56.83
2017-08-10T23:47:30.249Z,58.97
2017-08-10T23:49:56.746Z,60.43
2017-08-10T23:52:23.196Z,57.77
2017-08-10T23:54:49.760Z,59.20
2017-08-10T23:57:16.420Z,54.73
2017-08-10T23:59:42.870Z,59.20
